默认 日期 大小 文件数 浏览量 最新下载 xml
phil磁力链接相关资源由用户搜索指令自动获取,结果来源于网络,本站不存储任何资料,亦不承担任何责任,请于24小时内删除,搜索到7044个磁力,显示前4000条数据,用时4ms。
    {"05 Adagio.flac": 36447989, "06 Allegro.flac": 23192256, "Saygun bio1.txt": 6774, "Saygun bio2.txt": 4715, "Ahmed_Adnan_Saygun.gif": 32702, "04 V Con- Moderato.flac": 60876008, "09 Horon; molto vivo.flac": 18708369, "08 Improvisation; lento.flac": ...
创建时间: 2019-01-17 22:52:23 大小:151.95 MB 文件数量:9 热度:7 最近下载:2024-06-20 17:13:02
    ... , "screen0004.png": 128955}, "Somebody.Feed.Phil.S01E03.XviD-AFG.avi": 853075578 ... , "Somebody.Feed.Phil.S01E03.XviD-AFG.nfo": 1176 ...
创建时间: 2019-01-17 23:32:25 大小:814.86 MB 文件数量:7 热度:4 最近下载:2022-11-15 18:55:10
    {"free audiobook version.txt": 626, "Living the Secular Life_ New Answers to Old Questions by Phil Zuckerman.epub": 447382}
创建时间: 2019-01-17 23:57:07 大小:437.51 KB 文件数量:2 热度:7 最近下载:2025-01-12 15:54:07
    {"BDMV": {"BACKUP": {"CLIPINF": {"00000.clpi": 292, "00001.clpi": 79592, "00002.clpi": 86004, "00003.clpi": 524, "00004.clpi": 1524, "00005.clpi": 480, "00006.clpi": 480, "00007.clpi": 292, "00008.clpi": 292, "00009.clpi": 376}, "PLAYLIST": {"00000.mpls": ...
创建时间: 2019-01-18 01:13:28 大小:42.93 GB 文件数量:46 热度:10 最近下载:2025-01-13 19:54:03
    ... 775, "mediainfo1.txt": 2693}, "screens": {"Phil.Collins.Going.Back.to.Detroit ... _1.jpg": 21415, "Phil.Collins.Going.Back.to.Detroit ... _2.jpg": 48914, "Phil.Collins.Going.Back.to.Detroit ... _3.jpg": 37635, "Phil.Collins.Going.Back.to.Detroit ...
创建时间: 2019-01-18 01:43:20 大小:1.38 GB 文件数量:22 热度:6 最近下载:2024-12-27 12:27:02
    {"RARBG.txt": 30, "dr.phil.2019.01.11.720p.hdtv.x264-w4f.mkv": 1215702563, "dr.phil.2019.01.11.720p.hdtv.x264-w4f.nfo": 5823}
创建时间: 2019-01-18 01:50:35 大小:1.13 GB 文件数量:3 热度:5 最近下载:2025-05-29 19:50:01
    {"CD.jpg": 973310, "Le Sacre notes.txt": 1014, "Columbia Open Reel.jpg": 1200398, "02 The Sacrifice - New York Philharmonic, Leonard Bernstein, cond..wav": 199644860, "New York Philharmonic, Leonard Bernstein, cond. - Le Sacre du Primtemps.jpg": 1618997, " ...
创建时间: 2019-01-18 02:25:40 大小:355.37 MB 文件数量:6 热度:6 最近下载:2025-03-30 01:48:01
    {"1959 Pontiac commercial with Phil Silvers.avi": 9402428, "1963 ... Preview hosted by Phil Silvers.avi": 39585118, "Phil Silvers cleans up ... .avi": 52361182, "The final Phil Silvers interview at his home ... in 1985.avi": 71207100, "Phil Silvers and Jack Benny clip ...
创建时间: 2019-01-18 03:39:05 大小:217.57 MB 文件数量:5 热度:4 最近下载:2022-11-12 08:40:42
    ... (S-Extension Vox).flac": 55528885, "Phil Fuldner - S-Express (Maxi).log ... ": 8632, "Phil Fuldner - S-Express (Maxi).m3u ...
创建时间: 2019-01-18 03:50:30 大小:278.13 MB 文件数量:9 热度:5 最近下载:2022-11-12 12:46:29
    {"README!!!.txt": 612, "Disc 1 of 4.mp3": 20248591, "Disc 2 of 4.mp3": 19752995, "Disc 3 of 4.mp3": 18281870, "Disc 4 of 4.mp3": 18166982}
创建时间: 2019-01-18 03:54:25 大小:72.91 MB 文件数量:5 热度:4 最近下载:2022-11-15 19:29:06
    ... ": 1159605, "screen0004.png": 867198}, "Dr.Phil.2019.01.11.720p.HEVC ... .x265-MeGusta.mkv": 358129541, "Dr.Phil.2019.01.11.720p.HEVC ...
创建时间: 2019-01-18 04:07:42 大小:345.87 MB 文件数量:7 热度:8 最近下载:2025-04-23 10:26:02
    {"Dr Phil - 01 - Life Strategies - CD1.mp3": 34729984, "Dr Phil - 02 - Life Strategies - CD 2.mp3": 25300992, "Dr Phil - 03 - Life Strategies - CD 3.mp3": 26687488, "Dr Phil - 04 - Life Strategies - CD 4.mp3": 29169664}
创建时间: 2019-01-18 14:06:58 大小:110.52 MB 文件数量:4 热度:4 最近下载:2022-11-12 10:15:36
    {"RARBG.txt": 30, "dr.phil.2018.12.01.hdtv.x264-w4f.mkv": 326036395, "dr.phil.2018.12.01.hdtv.x264-w4f.nfo": 5970}
创建时间: 2019-01-18 15:11:52 大小:310.94 MB 文件数量:3 热度:3 最近下载:2022-11-12 10:28:05
    {"RARBG.txt": 30, "dr.phil.2019.01.11.hdtv.x264-w4f.mkv": 348370202, "dr.phil.2019.01.11.hdtv.x264-w4f.nfo": 5820}
创建时间: 2019-01-18 19:58:47 大小:332.24 MB 文件数量:3 热度:4 最近下载:2022-11-12 10:45:59
    ... - Squire's Parlor.flac": 39651141, "Phil Woods - Warm Woods.log": 9682 ... , "Phil Woods - Warm Woods.m3u": 226, " ...
创建时间: 2019-01-18 23:10:34 大小:297.69 MB 文件数量:12 热度:6 最近下载:2025-02-08 02:37:04
    {"View": {"box1.jpg": 11876776, "box2.jpg": 11678618, "book 1-2.jpg": 10889373, "book 3-4.jpg": 5300959, "book 5-6.jpg": 6959657, "cover500.JPG": 50646, "book cover.jpg": 12149484}, "Picture": {"Tracks.JPG": 54023, "Spectrum 1.JPG": 65168, "Spectrum 4.JPG ...
创建时间: 2019-01-18 23:32:57 大小:232.91 MB 文件数量:19 热度:9 最近下载:2025-02-18 19:33:03
    ... .com.txt": 113, "Somebody.Feed.Phil.S01E03.1080p.WEBRip.x264-SERIOUSLY ... .mkv": 2332478303, "somebody.feed.phil.s01e03.1080p.webrip.x264-seriously ...
创建时间: 2019-01-18 23:39:46 大小:2.18 GB 文件数量:7 热度:6 最近下载:2025-03-01 10:35:03
    ... ": 518928, "screen0004.png": 430432}, "dr.phil.2019.01.03.hdtv.x264 ... -w4f.mkv": 332809478, "dr.phil.2019.01.03.hdtv.x264 ...
创建时间: 2019-01-19 01:26:09 大小:319.29 MB 文件数量:7 热度:4 最近下载:2022-11-15 19:42:55
    ... , 2292-54939-2).cue": 2135, "Phil Collins - Face Value (Atlantic 16029 ...
创建时间: 2019-01-19 01:46:10 大小:302.62 MB 文件数量:25 热度:6 最近下载:2025-01-28 02:20:01
    ... Cultura.mp3": 3274274, "01) Kill Phil Intro.mp3": 2109213, "05) Rap ...
创建时间: 2019-01-19 02:37:28 大小:83.61 MB 文件数量:22 热度:3 最近下载:2022-11-15 19:02:52